Princeville, Hawaii
Current Conditions -  °F | °C
As of 12:53 AM on Sunday 23 Nov 2014 (Local Time) from PHLI Reporting Station
Few Clouds Few Clouds  
Wind Chill: 76°   Ceiling: Unl
Heat Index: 76°   Visibility: 10mi
Dew Point: 68°   Wind: 10mph
Humidity: 76%   Direction: 90°E
Pressure: 30.05"   Gusts: NA
Location:  22.22°N, 159.48°W
Report Text: PHLI 231053Z 09009KT 10SM FEW039 24/20 A3005 RMK AO2 SLP171 T02440200 $
Loading
Personal Weather Stations






























Interactive Weather Map New forecast layout! Learn more

10-Day Weather Forecast

Advertisements
Track Severe Weather on mobile